sensor_id;sensor_type;location;lat;lon;timestamp;P1;durP1;ratioP1;P2;durP2;ratioP2
25419;SDS011;13354;48.174;11.566;2023-12-20T00:00:45;3.03;;;2.20;;
25419;SDS011;13354;48.174;11.566;2023-12-20T00:03:11;2.85;;;2.00;;
25419;SDS011;13354;48.174;11.566;2023-12-20T00:05:36;3.47;;;1.88;;
25419;SDS011;13354;48.174;11.566;2023-12-20T00:08:06;3.00;;;2.10;;
25419;SDS011;13354;48.174;11.566;2023-12-20T00:10:31;2.67;;;2.05;;
25419;SDS011;13354;48.174;11.566;2023-12-20T00:12:56;2.53;;;2.20;;
25419;SDS011;13354;48.174;11.566;2023-12-20T00:15:22;3.22;;;2.50;;
25419;SDS011;13354;48.174;11.566;2023-12-20T00:17:47;3.63;;;2.72;;
25419;SDS011;13354;48.174;11.566;2023-12-20T00:20:12;2.97;;;2.45;;
25419;SDS011;13354;48.174;11.566;2023-12-20T00:22:38;4.55;;;2.83;;
25419;SDS011;13354;48.174;11.566;2023-12-20T00:25:03;2.72;;;2.17;;
25419;SDS011;13354;48.174;11.566;2023-12-20T00:27:29;4.20;;;2.88;;
25419;SDS011;13354;48.174;11.566;2023-12-20T00:29:54;3.65;;;2.80;;
25419;SDS011;13354;48.174;11.566;2023-12-20T00:32:20;4.25;;;2.50;;
25419;SDS011;13354;48.174;11.566;2023-12-20T00:34:45;4.80;;;3.00;;
25419;SDS011;13354;48.174;11.566;2023-12-20T00:37:10;4.05;;;2.30;;
25419;SDS011;13354;48.174;11.566;2023-12-20T00:39:36;2.15;;;1.90;;
25419;SDS011;13354;48.174;11.566;2023-12-20T00:42:01;3.05;;;2.47;;
25419;SDS011;13354;48.174;11.566;2023-12-20T00:44:26;3.38;;;2.00;;
25419;SDS011;13354;48.174;11.566;2023-12-20T00:46:52;3.75;;;1.83;;
25419;SDS011;13354;48.174;11.566;2023-12-20T00:49:17;2.05;;;1.80;;
25419;SDS011;13354;48.174;11.566;2023-12-20T00:51:42;2.20;;;1.73;;
25419;SDS011;13354;48.174;11.566;2023-12-20T00:54:08;2.55;;;1.70;;
25419;SDS011;13354;48.174;11.566;2023-12-20T00:56:34;2.10;;;1.58;;
25419;SDS011;13354;48.174;11.566;2023-12-20T00:58:59;2.10;;;1.70;;
25419;SDS011;13354;48.174;11.566;2023-12-20T01:01:24;1.77;;;1.52;;
25419;SDS011;13354;48.174;11.566;2023-12-20T01:03:50;2.42;;;1.80;;
25419;SDS011;13354;48.174;11.566;2023-12-20T01:06:16;1.95;;;1.73;;
25419;SDS011;13354;48.174;11.566;2023-12-20T01:08:41;1.77;;;1.58;;
25419;SDS011;13354;48.174;11.566;2023-12-20T01:11:07;2.33;;;1.75;;
25419;SDS011;13354;48.174;11.566;2023-12-20T01:13:32;2.45;;;1.67;;
25419;SDS011;13354;48.174;11.566;2023-12-20T01:15:58;1.50;;;1.40;;
25419;SDS011;13354;48.174;11.566;2023-12-20T01:18:23;2.67;;;1.40;;
25419;SDS011;13354;48.174;11.566;2023-12-20T01:20:48;2.15;;;1.40;;
25419;SDS011;13354;48.174;11.566;2023-12-20T01:23:14;1.98;;;1.30;;
25419;SDS011;13354;48.174;11.566;2023-12-20T01:25:39;2.28;;;1.60;;
25419;SDS011;13354;48.174;11.566;2023-12-20T01:28:04;1.73;;;1.63;;
25419;SDS011;13354;48.174;11.566;2023-12-20T01:30:30;2.00;;;1.63;;
25419;SDS011;13354;48.174;11.566;2023-12-20T01:32:55;2.33;;;1.50;;
25419;SDS011;13354;48.174;11.566;2023-12-20T01:35:20;4.80;;;1.58;;
25419;SDS011;13354;48.174;11.566;2023-12-20T01:37:46;2.03;;;1.02;;
25419;SDS011;13354;48.174;11.566;2023-12-20T01:40:11;1.65;;;1.50;;
25419;SDS011;13354;48.174;11.566;2023-12-20T01:42:37;2.00;;;1.60;;
25419;SDS011;13354;48.174;11.566;2023-12-20T01:45:02;2.17;;;1.63;;
25419;SDS011;13354;48.174;11.566;2023-12-20T01:47:28;2.38;;;1.80;;
25419;SDS011;13354;48.174;11.566;2023-12-20T01:49:54;1.70;;;1.30;;
25419;SDS011;13354;48.174;11.566;2023-12-20T01:52:21;4.43;;;2.70;;
25419;SDS011;13354;48.174;11.566;2023-12-20T01:54:47;2.78;;;1.60;;
25419;SDS011;13354;48.174;11.566;2023-12-20T01:57:13;2.33;;;1.45;;
25419;SDS011;13354;48.174;11.566;2023-12-20T01:59:39;2.13;;;1.50;;
25419;SDS011;13354;48.174;11.566;2023-12-20T02:02:05;2.88;;;1.50;;
25419;SDS011;13354;48.174;11.566;2023-12-20T02:04:32;5.45;;;2.80;;
25419;SDS011;13354;48.174;11.566;2023-12-20T02:06:58;5.72;;;3.65;;
25419;SDS011;13354;48.174;11.566;2023-12-20T02:09:24;4.90;;;2.65;;
25419;SDS011;13354;48.174;11.566;2023-12-20T02:11:49;3.90;;;1.92;;
25419;SDS011;13354;48.174;11.566;2023-12-20T02:14:15;4.80;;;2.50;;
25419;SDS011;13354;48.174;11.566;2023-12-20T02:16:40;6.20;;;3.00;;
25419;SDS011;13354;48.174;11.566;2023-12-20T02:19:06;1.48;;;1.08;;
25419;SDS011;13354;48.174;11.566;2023-12-20T02:21:38;2.15;;;1.30;;
25419;SDS011;13354;48.174;11.566;2023-12-20T02:24:03;1.73;;;1.40;;
25419;SDS011;13354;48.174;11.566;2023-12-20T02:26:29;2.97;;;1.65;;
25419;SDS011;13354;48.174;11.566;2023-12-20T02:28:54;2.08;;;1.70;;
25419;SDS011;13354;48.174;11.566;2023-12-20T02:31:23;1.27;;;1.17;;
25419;SDS011;13354;48.174;11.566;2023-12-20T02:33:48;2.72;;;1.42;;
25419;SDS011;13354;48.174;11.566;2023-12-20T02:36:14;1.17;;;1.08;;
25419;SDS011;13354;48.174;11.566;2023-12-20T02:38:39;1.10;;;1.00;;
25419;SDS011;13354;48.174;11.566;2023-12-20T02:41:04;1.55;;;1.10;;
25419;SDS011;13354;48.174;11.566;2023-12-20T02:43:30;0.80;;;0.80;;
25419;SDS011;13354;48.174;11.566;2023-12-20T02:45:55;1.00;;;0.82;;
25419;SDS011;13354;48.174;11.566;2023-12-20T02:48:20;1.15;;;0.90;;
25419;SDS011;13354;48.174;11.566;2023-12-20T02:50:46;1.08;;;0.80;;
25419;SDS011;13354;48.174;11.566;2023-12-20T02:53:13;0.70;;;0.70;;
25419;SDS011;13354;48.174;11.566;2023-12-20T02:55:39;0.75;;;0.75;;
25419;SDS011;13354;48.174;11.566;2023-12-20T02:58:04;0.80;;;0.77;;
25419;SDS011;13354;48.174;11.566;2023-12-20T03:00:30;2.65;;;0.80;;
25419;SDS011;13354;48.174;11.566;2023-12-20T03:02:55;1.55;;;0.85;;
25419;SDS011;13354;48.174;11.566;2023-12-20T03:05:20;0.98;;;0.70;;
25419;SDS011;13354;48.174;11.566;2023-12-20T03:07:46;0.93;;;0.57;;
25419;SDS011;13354;48.174;11.566;2023-12-20T03:10:11;1.75;;;0.65;;
25419;SDS011;13354;48.174;11.566;2023-12-20T03:12:37;1.00;;;0.70;;
25419;SDS011;13354;48.174;11.566;2023-12-20T03:15:02;1.65;;;0.70;;
25419;SDS011;13354;48.174;11.566;2023-12-20T03:17:28;0.63;;;0.60;;
25419;SDS011;13354;48.174;11.566;2023-12-20T03:19:53;0.50;;;0.50;;
25419;SDS011;13354;48.174;11.566;2023-12-20T03:22:18;0.90;;;0.75;;
25419;SDS011;13354;48.174;11.566;2023-12-20T03:24:43;0.50;;;0.50;;
25419;SDS011;13354;48.174;11.566;2023-12-20T03:27:09;0.75;;;0.60;;
25419;SDS011;13354;48.174;11.566;2023-12-20T03:29:34;0.70;;;0.70;;
25419;SDS011;13354;48.174;11.566;2023-12-20T03:31:59;0.95;;;0.82;;
25419;SDS011;13354;48.174;11.566;2023-12-20T03:34:25;0.57;;;0.57;;
25419;SDS011;13354;48.174;11.566;2023-12-20T03:36:51;0.70;;;0.70;;
25419;SDS011;13354;48.174;11.566;2023-12-20T03:39:17;0.60;;;0.60;;
25419;SDS011;13354;48.174;11.566;2023-12-20T03:41:42;1.30;;;0.63;;
25419;SDS011;13354;48.174;11.566;2023-12-20T03:44:07;0.60;;;0.60;;
25419;SDS011;13354;48.174;11.566;2023-12-20T03:46:33;0.80;;;0.80;;
25419;SDS011;13354;48.174;11.566;2023-12-20T03:48:58;1.00;;;0.70;;
25419;SDS011;13354;48.174;11.566;2023-12-20T03:51:24;0.73;;;0.70;;
25419;SDS011;13354;48.174;11.566;2023-12-20T03:53:49;0.82;;;0.70;;
25419;SDS011;13354;48.174;11.566;2023-12-20T03:56:14;1.00;;;0.90;;
25419;SDS011;13354;48.174;11.566;2023-12-20T03:58:39;0.73;;;0.73;;
25419;SDS011;13354;48.174;11.566;2023-12-20T04:01:09;0.75;;;0.75;;
25419;SDS011;13354;48.174;11.566;2023-12-20T04:03:36;0.65;;;0.65;;
25419;SDS011;13354;48.174;11.566;2023-12-20T04:06:01;0.80;;;0.75;;
25419;SDS011;13354;48.174;11.566;2023-12-20T04:08:27;2.28;;;0.80;;
25419;SDS011;13354;48.174;11.566;2023-12-20T04:10:52;0.82;;;0.80;;
25419;SDS011;13354;48.174;11.566;2023-12-20T04:13:17;0.80;;;0.80;;
25419;SDS011;13354;48.174;11.566;2023-12-20T04:15:43;0.70;;;0.70;;
25419;SDS011;13354;48.174;11.566;2023-12-20T04:18:08;1.00;;;0.80;;
25419;SDS011;13354;48.174;11.566;2023-12-20T04:20:33;1.20;;;1.10;;
25419;SDS011;13354;48.174;11.566;2023-12-20T04:22:59;1.38;;;1.10;;
25419;SDS011;13354;48.174;11.566;2023-12-20T04:25:24;0.73;;;0.73;;
25419;SDS011;13354;48.174;11.566;2023-12-20T04:27:50;0.80;;;0.80;;
25419;SDS011;13354;48.174;11.566;2023-12-20T04:30:15;2.15;;;0.70;;
25419;SDS011;13354;48.174;11.566;2023-12-20T04:32:40;2.05;;;0.98;;
25419;SDS011;13354;48.174;11.566;2023-12-20T04:35:06;0.80;;;0.80;;
25419;SDS011;13354;48.174;11.566;2023-12-20T04:37:32;1.25;;;1.02;;
25419;SDS011;13354;48.174;11.566;2023-12-20T04:39:57;0.90;;;0.80;;
25419;SDS011;13354;48.174;11.566;2023-12-20T04:42:23;0.90;;;0.90;;
25419;SDS011;13354;48.174;11.566;2023-12-20T04:44:48;0.80;;;0.80;;
25419;SDS011;13354;48.174;11.566;2023-12-20T04:47:13;0.90;;;0.90;;
25419;SDS011;13354;48.174;11.566;2023-12-20T04:49:38;1.42;;;1.20;;
25419;SDS011;13354;48.174;11.566;2023-12-20T04:52:04;0.80;;;0.80;;
25419;SDS011;13354;48.174;11.566;2023-12-20T04:54:29;1.23;;;0.90;;
25419;SDS011;13354;48.174;11.566;2023-12-20T04:56:55;1.30;;;1.20;;
25419;SDS011;13354;48.174;11.566;2023-12-20T04:59:20;1.45;;;1.33;;
25419;SDS011;13354;48.174;11.566;2023-12-20T05:01:45;1.55;;;1.30;;
25419;SDS011;13354;48.174;11.566;2023-12-20T05:04:10;1.65;;;1.40;;
25419;SDS011;13354;48.174;11.566;2023-12-20T05:06:36;1.65;;;1.55;;
25419;SDS011;13354;48.174;11.566;2023-12-20T05:09:01;3.40;;;1.50;;
25419;SDS011;13354;48.174;11.566;2023-12-20T05:11:27;2.20;;;1.90;;
25419;SDS011;13354;48.174;11.566;2023-12-20T05:13:52;1.67;;;1.40;;
25419;SDS011;13354;48.174;11.566;2023-12-20T05:16:17;2.33;;;1.80;;
25419;SDS011;13354;48.174;11.566;2023-12-20T05:18:43;2.42;;;1.70;;
25419;SDS011;13354;48.174;11.566;2023-12-20T05:21:09;2.97;;;2.35;;
25419;SDS011;13354;48.174;11.566;2023-12-20T05:23:35;2.80;;;2.15;;
25419;SDS011;13354;48.174;11.566;2023-12-20T05:26:00;2.45;;;2.05;;
25419;SDS011;13354;48.174;11.566;2023-12-20T05:28:25;2.38;;;2.17;;
25419;SDS011;13354;48.174;11.566;2023-12-20T05:30:51;3.50;;;2.20;;
25419;SDS011;13354;48.174;11.566;2023-12-20T05:33:16;2.38;;;2.00;;
25419;SDS011;13354;48.174;11.566;2023-12-20T05:35:41;2.80;;;2.50;;
25419;SDS011;13354;48.174;11.566;2023-12-20T05:38:07;3.05;;;2.60;;
25419;SDS011;13354;48.174;11.566;2023-12-20T05:40:32;2.85;;;2.38;;
25419;SDS011;13354;48.174;11.566;2023-12-20T05:42:57;4.32;;;2.92;;
25419;SDS011;13354;48.174;11.566;2023-12-20T05:45:23;3.38;;;2.20;;
25419;SDS011;13354;48.174;11.566;2023-12-20T05:47:48;3.65;;;2.40;;
25419;SDS011;13354;48.174;11.566;2023-12-20T05:50:13;3.40;;;2.35;;
25419;SDS011;13354;48.174;11.566;2023-12-20T05:52:39;2.85;;;2.20;;
25419;SDS011;13354;48.174;11.566;2023-12-20T05:55:04;3.88;;;2.47;;
25419;SDS011;13354;48.174;11.566;2023-12-20T05:57:30;2.58;;;2.13;;
25419;SDS011;13354;48.174;11.566;2023-12-20T05:59:55;3.08;;;2.28;;
25419;SDS011;13354;48.174;11.566;2023-12-20T06:02:20;2.83;;;2.08;;
25419;SDS011;13354;48.174;11.566;2023-12-20T06:04:46;2.17;;;1.98;;
25419;SDS011;13354;48.174;11.566;2023-12-20T06:07:11;2.65;;;2.10;;
25419;SDS011;13354;48.174;11.566;2023-12-20T06:09:37;3.13;;;2.20;;
25419;SDS011;13354;48.174;11.566;2023-12-20T06:12:03;3.40;;;2.47;;
25419;SDS011;13354;48.174;11.566;2023-12-20T06:14:28;3.08;;;2.40;;
25419;SDS011;13354;48.174;11.566;2023-12-20T06:16:55;2.80;;;2.47;;
25419;SDS011;13354;48.174;11.566;2023-12-20T06:19:21;3.92;;;2.50;;
25419;SDS011;13354;48.174;11.566;2023-12-20T06:21:46;2.50;;;2.25;;
25419;SDS011;13354;48.174;11.566;2023-12-20T06:24:12;3.10;;;2.67;;
25419;SDS011;13354;48.174;11.566;2023-12-20T06:26:37;3.70;;;2.63;;
25419;SDS011;13354;48.174;11.566;2023-12-20T06:29:03;3.10;;;2.40;;
25419;SDS011;13354;48.174;11.566;2023-12-20T06:31:28;2.40;;;2.20;;
25419;SDS011;13354;48.174;11.566;2023-12-20T06:33:54;4.90;;;2.42;;
25419;SDS011;13354;48.174;11.566;2023-12-20T06:36:22;2.85;;;2.42;;
25419;SDS011;13354;48.174;11.566;2023-12-20T06:38:48;4.28;;;2.35;;
25419;SDS011;13354;48.174;11.566;2023-12-20T06:41:13;3.22;;;2.20;;
25419;SDS011;13354;48.174;11.566;2023-12-20T06:43:40;3.28;;;2.72;;
25419;SDS011;13354;48.174;11.566;2023-12-20T06:46:06;2.75;;;2.30;;
25419;SDS011;13354;48.174;11.566;2023-12-20T06:48:31;3.15;;;2.42;;
25419;SDS011;13354;48.174;11.566;2023-12-20T06:50:57;3.47;;;2.45;;
25419;SDS011;13354;48.174;11.566;2023-12-20T06:53:24;3.03;;;2.38;;
25419;SDS011;13354;48.174;11.566;2023-12-20T06:55:49;2.45;;;2.00;;
25419;SDS011;13354;48.174;11.566;2023-12-20T06:58:15;4.00;;;2.25;;
25419;SDS011;13354;48.174;11.566;2023-12-20T07:00:41;3.40;;;2.45;;
25419;SDS011;13354;48.174;11.566;2023-12-20T07:03:07;3.38;;;2.30;;
25419;SDS011;13354;48.174;11.566;2023-12-20T07:05:32;2.53;;;2.05;;
25419;SDS011;13354;48.174;11.566;2023-12-20T07:07:58;2.13;;;1.92;;
25419;SDS011;13354;48.174;11.566;2023-12-20T07:10:23;3.42;;;2.35;;
25419;SDS011;13354;48.174;11.566;2023-12-20T07:12:49;2.08;;;1.88;;
25419;SDS011;13354;48.174;11.566;2023-12-20T07:15:16;2.45;;;1.90;;
25419;SDS011;13354;48.174;11.566;2023-12-20T07:17:41;1.73;;;1.60;;
25419;SDS011;13354;48.174;11.566;2023-12-20T07:20:07;2.92;;;1.70;;
25419;SDS011;13354;48.174;11.566;2023-12-20T07:22:35;1.83;;;1.60;;
25419;SDS011;13354;48.174;11.566;2023-12-20T07:25:01;1.63;;;1.52;;
25419;SDS011;13354;48.174;11.566;2023-12-20T07:27:27;1.60;;;1.50;;
25419;SDS011;13354;48.174;11.566;2023-12-20T07:29:52;2.58;;;1.45;;
25419;SDS011;13354;48.174;11.566;2023-12-20T07:32:18;1.40;;;1.30;;
25419;SDS011;13354;48.174;11.566;2023-12-20T07:34:43;1.70;;;1.50;;
25419;SDS011;13354;48.174;11.566;2023-12-20T07:37:09;1.30;;;1.20;;
25419;SDS011;13354;48.174;11.566;2023-12-20T07:39:36;3.05;;;1.67;;
25419;SDS011;13354;48.174;11.566;2023-12-20T07:42:05;1.48;;;1.30;;
25419;SDS011;13354;48.174;11.566;2023-12-20T07:44:31;1.60;;;1.40;;
25419;SDS011;13354;48.174;11.566;2023-12-20T07:46:56;2.38;;;1.50;;
25419;SDS011;13354;48.174;11.566;2023-12-20T07:49:23;2.28;;;1.10;;
25419;SDS011;13354;48.174;11.566;2023-12-20T07:51:48;2.17;;;1.10;;
25419;SDS011;13354;48.174;11.566;2023-12-20T07:54:14;2.53;;;0.90;;
25419;SDS011;13354;48.174;11.566;2023-12-20T07:56:40;1.27;;;1.10;;
25419;SDS011;13354;48.174;11.566;2023-12-20T07:59:05;2.25;;;1.23;;
25419;SDS011;13354;48.174;11.566;2023-12-20T08:01:31;1.17;;;1.05;;
25419;SDS011;13354;48.174;11.566;2023-12-20T08:03:56;3.85;;;1.10;;
25419;SDS011;13354;48.174;11.566;2023-12-20T08:06:22;1.00;;;0.90;;
25419;SDS011;13354;48.174;11.566;2023-12-20T08:08:47;1.20;;;1.10;;
25419;SDS011;13354;48.174;11.566;2023-12-20T08:11:13;0.85;;;0.80;;
25419;SDS011;13354;48.174;11.566;2023-12-20T08:13:38;0.80;;;0.80;;
25419;SDS011;13354;48.174;11.566;2023-12-20T08:16:04;0.85;;;0.85;;
25419;SDS011;13354;48.174;11.566;2023-12-20T08:18:29;2.30;;;0.90;;
25419;SDS011;13354;48.174;11.566;2023-12-20T08:20:55;3.05;;;1.00;;
25419;SDS011;13354;48.174;11.566;2023-12-20T08:23:20;1.20;;;1.10;;
25419;SDS011;13354;48.174;11.566;2023-12-20T08:25:46;1.08;;;0.93;;
25419;SDS011;13354;48.174;11.566;2023-12-20T08:28:11;1.15;;;0.80;;
25419;SDS011;13354;48.174;11.566;2023-12-20T08:30:37;2.70;;;1.00;;
25419;SDS011;13354;48.174;11.566;2023-12-20T08:33:02;0.80;;;0.80;;
25419;SDS011;13354;48.174;11.566;2023-12-20T08:35:28;1.20;;;1.08;;
25419;SDS011;13354;48.174;11.566;2023-12-20T08:37:53;0.80;;;0.80;;
25419;SDS011;13354;48.174;11.566;2023-12-20T08:40:18;1.63;;;0.90;;
25419;SDS011;13354;48.174;11.566;2023-12-20T08:42:45;0.98;;;0.90;;
25419;SDS011;13354;48.174;11.566;2023-12-20T08:45:10;1.38;;;0.90;;
25419;SDS011;13354;48.174;11.566;2023-12-20T08:47:36;1.63;;;1.00;;
25419;SDS011;13354;48.174;11.566;2023-12-20T08:50:02;0.93;;;0.93;;
25419;SDS011;13354;48.174;11.566;2023-12-20T08:52:28;1.10;;;0.98;;
25419;SDS011;13354;48.174;11.566;2023-12-20T08:54:54;1.08;;;0.90;;
25419;SDS011;13354;48.174;11.566;2023-12-20T08:57:19;0.73;;;0.73;;
25419;SDS011;13354;48.174;11.566;2023-12-20T08:59:46;1.58;;;0.90;;
25419;SDS011;13354;48.174;11.566;2023-12-20T09:02:12;1.00;;;0.90;;
25419;SDS011;13354;48.174;11.566;2023-12-20T09:04:37;0.90;;;0.90;;
25419;SDS011;13354;48.174;11.566;2023-12-20T09:07:03;2.78;;;1.48;;
25419;SDS011;13354;48.174;11.566;2023-12-20T09:09:28;2.70;;;2.05;;
25419;SDS011;13354;48.174;11.566;2023-12-20T09:11:54;1.40;;;1.10;;
25419;SDS011;13354;48.174;11.566;2023-12-20T09:14:19;1.10;;;1.00;;
25419;SDS011;13354;48.174;11.566;2023-12-20T09:16:44;0.95;;;0.95;;
25419;SDS011;13354;48.174;11.566;2023-12-20T09:19:10;1.45;;;0.98;;
25419;SDS011;13354;48.174;11.566;2023-12-20T09:21:35;1.02;;;0.93;;
25419;SDS011;13354;48.174;11.566;2023-12-20T09:24:00;1.70;;;0.80;;
25419;SDS011;13354;48.174;11.566;2023-12-20T09:26:26;0.93;;;0.85;;
25419;SDS011;13354;48.174;11.566;2023-12-20T09:28:51;1.38;;;0.90;;
25419;SDS011;13354;48.174;11.566;2023-12-20T09:31:16;1.10;;;1.00;;
25419;SDS011;13354;48.174;11.566;2023-12-20T09:33:42;0.93;;;0.90;;
25419;SDS011;13354;48.174;11.566;2023-12-20T09:36:07;2.38;;;1.20;;
25419;SDS011;13354;48.174;11.566;2023-12-20T09:38:32;1.40;;;0.95;;
25419;SDS011;13354;48.174;11.566;2023-12-20T09:40:58;0.90;;;0.80;;
25419;SDS011;13354;48.174;11.566;2023-12-20T09:43:23;1.60;;;1.13;;
25419;SDS011;13354;48.174;11.566;2023-12-20T09:45:51;3.03;;;0.95;;
25419;SDS011;13354;48.174;11.566;2023-12-20T09:48:18;2.83;;;0.77;;
25419;SDS011;13354;48.174;11.566;2023-12-20T09:50:45;3.38;;;2.50;;
25419;SDS011;13354;48.174;11.566;2023-12-20T09:53:11;3.03;;;1.20;;
25419;SDS011;13354;48.174;11.566;2023-12-20T09:55:41;1.08;;;0.98;;
25419;SDS011;13354;48.174;11.566;2023-12-20T09:58:06;1.50;;;1.10;;
25419;SDS011;13354;48.174;11.566;2023-12-20T10:00:33;0.73;;;0.73;;
25419;SDS011;13354;48.174;11.566;2023-12-20T10:03:00;1.20;;;1.10;;
25419;SDS011;13354;48.174;11.566;2023-12-20T10:05:27;1.10;;;1.00;;
25419;SDS011;13354;48.174;11.566;2023-12-20T10:07:53;1.25;;;0.90;;
25419;SDS011;13354;48.174;11.566;2023-12-20T10:10:19;1.27;;;1.00;;
25419;SDS011;13354;48.174;11.566;2023-12-20T10:15:28;1.10;;;1.00;;
25419;SDS011;13354;48.174;11.566;2023-12-20T10:17:54;1.55;;;0.93;;
25419;SDS011;13354;48.174;11.566;2023-12-20T10:20:20;1.17;;;1.08;;
25419;SDS011;13354;48.174;11.566;2023-12-20T10:22:45;1.35;;;1.10;;
25419;SDS011;13354;48.174;11.566;2023-12-20T10:25:11;1.10;;;1.00;;
25419;SDS011;13354;48.174;11.566;2023-12-20T10:27:37;2.88;;;1.50;;
25419;SDS011;13354;48.174;11.566;2023-12-20T10:30:02;2.22;;;1.20;;
25419;SDS011;13354;48.174;11.566;2023-12-20T10:32:28;1.90;;;1.40;;
25419;SDS011;13354;48.174;11.566;2023-12-20T10:34:54;1.25;;;1.15;;
25419;SDS011;13354;48.174;11.566;2023-12-20T10:37:20;2.92;;;1.30;;
25419;SDS011;13354;48.174;11.566;2023-12-20T10:39:53;1.67;;;1.58;;
25419;SDS011;13354;48.174;11.566;2023-12-20T10:42:22;1.40;;;1.30;;
25419;SDS011;13354;48.174;11.566;2023-12-20T10:44:51;1.70;;;1.13;;
25419;SDS011;13354;48.174;11.566;2023-12-20T10:47:17;1.83;;;1.55;;
25419;SDS011;13354;48.174;11.566;2023-12-20T10:49:42;3.00;;;1.45;;
25419;SDS011;13354;48.174;11.566;2023-12-20T10:52:09;2.70;;;1.30;;
25419;SDS011;13354;48.174;11.566;2023-12-20T10:54:36;1.13;;;1.10;;
25419;SDS011;13354;48.174;11.566;2023-12-20T10:57:02;1.30;;;1.08;;
25419;SDS011;13354;48.174;11.566;2023-12-20T10:59:30;1.85;;;1.00;;
25419;SDS011;13354;48.174;11.566;2023-12-20T11:01:58;1.42;;;1.02;;
25419;SDS011;13354;48.174;11.566;2023-12-20T11:04:35;1.85;;;1.08;;
25419;SDS011;13354;48.174;11.566;2023-12-20T11:07:15;0.93;;;0.93;;
25419;SDS011;13354;48.174;11.566;2023-12-20T11:09:56;1.55;;;1.30;;
25419;SDS011;13354;48.174;11.566;2023-12-20T11:12:36;1.77;;;1.23;;
25419;SDS011;13354;48.174;11.566;2023-12-20T11:15:27;1.10;;;0.93;;
25419;SDS011;13354;48.174;11.566;2023-12-20T11:17:57;1.38;;;1.20;;
25419;SDS011;13354;48.174;11.566;2023-12-20T11:20:23;1.25;;;1.05;;
25419;SDS011;13354;48.174;11.566;2023-12-20T11:22:55;1.38;;;1.27;;
25419;SDS011;13354;48.174;11.566;2023-12-20T11:25:21;1.45;;;1.30;;
25419;SDS011;13354;48.174;11.566;2023-12-20T11:28:06;1.85;;;1.55;;
25419;SDS011;13354;48.174;11.566;2023-12-20T11:30:42;2.28;;;1.10;;
25419;SDS011;13354;48.174;11.566;2023-12-20T11:33:08;1.42;;;1.13;;
25419;SDS011;13354;48.174;11.566;2023-12-20T11:35:34;2.90;;;2.05;;
25419;SDS011;13354;48.174;11.566;2023-12-20T11:38:01;3.22;;;2.22;;
25419;SDS011;13354;48.174;11.566;2023-12-20T11:40:27;2.78;;;2.20;;
25419;SDS011;13354;48.174;11.566;2023-12-20T11:42:52;1.80;;;1.50;;
25419;SDS011;13354;48.174;11.566;2023-12-20T11:45:24;1.63;;;1.40;;
25419;SDS011;13354;48.174;11.566;2023-12-20T11:47:50;1.48;;;1.30;;
25419;SDS011;13354;48.174;11.566;2023-12-20T11:50:17;2.05;;;1.40;;
25419;SDS011;13354;48.174;11.566;2023-12-20T11:52:43;1.85;;;1.50;;
25419;SDS011;13354;48.174;11.566;2023-12-20T11:55:09;1.60;;;1.50;;
25419;SDS011;13354;48.174;11.566;2023-12-20T11:57:34;1.60;;;1.50;;
25419;SDS011;13354;48.174;11.566;2023-12-20T12:00:01;1.33;;;1.20;;
25419;SDS011;13354;48.174;11.566;2023-12-20T12:02:27;1.90;;;1.67;;
25419;SDS011;13354;48.174;11.566;2023-12-20T12:04:53;1.58;;;1.40;;
25419;SDS011;13354;48.174;11.566;2023-12-20T12:07:18;2.35;;;1.75;;
25419;SDS011;13354;48.174;11.566;2023-12-20T12:09:45;3.15;;;2.13;;
25419;SDS011;13354;48.174;11.566;2023-12-20T12:12:11;2.95;;;2.47;;
25419;SDS011;13354;48.174;11.566;2023-12-20T12:14:37;1.85;;;1.50;;
25419;SDS011;13354;48.174;11.566;2023-12-20T12:17:03;1.83;;;1.52;;
25419;SDS011;13354;48.174;11.566;2023-12-20T12:19:29;2.78;;;2.45;;
25419;SDS011;13354;48.174;11.566;2023-12-20T12:22:13;6.22;;;3.92;;
25419;SDS011;13354;48.174;11.566;2023-12-20T12:24:40;1.65;;;1.50;;
25419;SDS011;13354;48.174;11.566;2023-12-20T12:27:06;1.70;;;1.55;;
25419;SDS011;13354;48.174;11.566;2023-12-20T12:29:32;1.38;;;1.27;;
25419;SDS011;13354;48.174;11.566;2023-12-20T12:31:58;2.95;;;1.17;;
25419;SDS011;13354;48.174;11.566;2023-12-20T12:34:24;1.23;;;1.13;;
25419;SDS011;13354;48.174;11.566;2023-12-20T12:36:52;2.05;;;1.40;;
25419;SDS011;13354;48.174;11.566;2023-12-20T12:39:18;1.30;;;1.20;;
25419;SDS011;13354;48.174;11.566;2023-12-20T12:41:43;2.28;;;1.25;;
25419;SDS011;13354;48.174;11.566;2023-12-20T12:44:09;1.30;;;1.20;;
25419;SDS011;13354;48.174;11.566;2023-12-20T12:46:34;2.35;;;1.75;;
25419;SDS011;13354;48.174;11.566;2023-12-20T12:49:00;1.75;;;1.23;;
25419;SDS011;13354;48.174;11.566;2023-12-20T12:51:25;1.90;;;1.67;;
25419;SDS011;13354;48.174;11.566;2023-12-20T12:53:51;1.95;;;1.63;;
25419;SDS011;13354;48.174;11.566;2023-12-20T12:56:16;2.35;;;1.70;;
25419;SDS011;13354;48.174;11.566;2023-12-20T12:58:42;2.47;;;1.70;;
25419;SDS011;13354;48.174;11.566;2023-12-20T13:01:08;1.70;;;1.60;;
25419;SDS011;13354;48.174;11.566;2023-12-20T13:03:35;5.72;;;1.92;;
25419;SDS011;13354;48.174;11.566;2023-12-20T13:06:00;2.42;;;1.90;;
25419;SDS011;13354;48.174;11.566;2023-12-20T13:08:26;1.70;;;1.60;;
25419;SDS011;13354;48.174;11.566;2023-12-20T13:10:51;4.20;;;1.52;;
25419;SDS011;13354;48.174;11.566;2023-12-20T13:13:17;2.55;;;1.50;;
25419;SDS011;13354;48.174;11.566;2023-12-20T13:15:42;2.85;;;1.52;;
25419;SDS011;13354;48.174;11.566;2023-12-20T13:18:13;1.67;;;1.40;;
25419;SDS011;13354;48.174;11.566;2023-12-20T13:20:38;2.70;;;1.55;;
25419;SDS011;13354;48.174;11.566;2023-12-20T13:23:05;2.75;;;1.42;;
25419;SDS011;13354;48.174;11.566;2023-12-20T13:25:30;1.83;;;1.50;;
25419;SDS011;13354;48.174;11.566;2023-12-20T13:27:56;1.85;;;1.30;;
25419;SDS011;13354;48.174;11.566;2023-12-20T13:30:21;1.63;;;1.42;;
25419;SDS011;13354;48.174;11.566;2023-12-20T13:32:46;1.60;;;1.50;;
25419;SDS011;13354;48.174;11.566;2023-12-20T13:35:12;6.30;;;1.48;;
25419;SDS011;13354;48.174;11.566;2023-12-20T13:37:38;1.73;;;1.63;;
25419;SDS011;13354;48.174;11.566;2023-12-20T13:40:03;2.28;;;1.48;;
25419;SDS011;13354;48.174;11.566;2023-12-20T13:42:29;4.10;;;1.80;;
25419;SDS011;13354;48.174;11.566;2023-12-20T13:44:55;1.98;;;1.45;;
25419;SDS011;13354;48.174;11.566;2023-12-20T13:47:20;3.38;;;1.55;;
25419;SDS011;13354;48.174;11.566;2023-12-20T13:49:46;1.90;;;1.60;;
25419;SDS011;13354;48.174;11.566;2023-12-20T13:52:11;1.95;;;1.70;;
25419;SDS011;13354;48.174;11.566;2023-12-20T13:54:37;2.08;;;1.63;;
25419;SDS011;13354;48.174;11.566;2023-12-20T13:57:03;7.05;;;4.20;;
25419;SDS011;13354;48.174;11.566;2023-12-20T13:59:28;3.38;;;2.42;;
25419;SDS011;13354;48.174;11.566;2023-12-20T14:01:53;3.78;;;2.00;;
25419;SDS011;13354;48.174;11.566;2023-12-20T14:04:19;3.20;;;2.17;;
25419;SDS011;13354;48.174;11.566;2023-12-20T14:06:46;3.03;;;2.45;;
25419;SDS011;13354;48.174;11.566;2023-12-20T14:09:12;7.05;;;3.10;;
25419;SDS011;13354;48.174;11.566;2023-12-20T14:11:37;4.57;;;2.22;;
25419;SDS011;13354;48.174;11.566;2023-12-20T14:14:06;2.97;;;1.85;;
25419;SDS011;13354;48.174;11.566;2023-12-20T14:16:32;3.35;;;1.85;;
25419;SDS011;13354;48.174;11.566;2023-12-20T14:18:58;3.90;;;1.85;;
25419;SDS011;13354;48.174;11.566;2023-12-20T14:21:23;3.83;;;1.90;;
25419;SDS011;13354;48.174;11.566;2023-12-20T14:23:50;1.63;;;1.52;;
25419;SDS011;13354;48.174;11.566;2023-12-20T14:26:17;5.10;;;1.80;;
25419;SDS011;13354;48.174;11.566;2023-12-20T14:28:42;2.20;;;1.55;;